createdAt,value
2022-11-25T00:01:13.329Z,96863.19
2022-11-25T00:03:41.199Z,96862.47
2022-11-25T00:06:08.893Z,96863.91
2022-11-25T00:08:35.838Z,96866.06
2022-11-25T00:11:03.271Z,96864.03
2022-11-25T00:13:30.129Z,96864.03
2022-11-25T00:15:56.948Z,96867.50
2022-11-25T00:18:23.753Z,96858.59
2022-11-25T00:20:50.436Z,96864.78
2022-11-25T00:23:17.196Z,96866.06
2022-11-25T00:25:43.838Z,96866.78
2022-11-25T00:28:10.653Z,96852.41
2022-11-25T00:30:37.394Z,96851.69
2022-11-25T00:33:04.117Z,96855.16
2022-11-25T00:35:30.814Z,96850.28
2022-11-25T00:37:57.597Z,96851.00
2022-11-25T00:40:24.317Z,96849.56
2022-11-25T00:43:09.638Z,96844.81
2022-11-25T00:45:37.648Z,96846.13
2022-11-25T00:48:06.990Z,96846.69
2022-11-25T00:50:33.769Z,96845.25
2022-11-25T00:53:00.453Z,96848.69
2022-11-25T00:55:47.251Z,96843.22
2022-11-25T00:58:14.034Z,96848.13
2022-11-25T01:00:40.788Z,96852.16
2022-11-25T01:03:07.618Z,96852.16
2022-11-25T01:05:34.286Z,96860.34
2022-11-25T01:08:01.034Z,96860.88
2022-11-25T01:10:27.783Z,96865.03
2022-11-25T01:12:54.543Z,96873.22
2022-11-25T01:15:21.197Z,96878.69
2022-11-25T01:17:47.932Z,96881.41
2022-11-25T01:20:16.683Z,96878.69
2022-11-25T01:22:43.420Z,96888.31
2022-11-25T01:25:10.086Z,96881.41
2022-11-25T01:27:40.829Z,96882.16
2022-11-25T01:30:08.190Z,96884.88
2022-11-25T01:32:34.918Z,96880.69
2022-11-25T01:35:01.786Z,96880.13
2022-11-25T01:37:28.631Z,96876.69
2022-11-25T01:39:55.397Z,96870.50
2022-11-25T01:42:22.128Z,96864.31
2022-11-25T01:45:27.864Z,96867.78
2022-11-25T01:47:58.970Z,96866.34
2022-11-25T01:50:26.954Z,96866.34
2022-11-25T01:52:54.893Z,96862.19
2022-11-25T01:55:28.559Z,96860.03
2022-11-25T01:58:16.431Z,96867.50
2022-11-25T02:00:51.837Z,96873.78
2022-11-25T02:03:24.162Z,96873.22
2022-11-25T02:05:59.754Z,96867.91
2022-11-25T02:08:27.894Z,96865.47
2022-11-25T02:11:01.844Z,96858.16
2022-11-25T02:13:28.869Z,96861.75
2022-11-25T02:15:55.560Z,96862.47
2022-11-25T02:18:25.713Z,96854.84
2022-11-25T02:20:52.670Z,96867.91
2022-11-25T02:23:25.694Z,96857.59
2022-11-25T02:25:54.786Z,96852.84
2022-11-25T02:28:23.766Z,96850.13
2022-11-25T02:30:51.293Z,96846.09
2022-11-25T02:33:18.949Z,96848.81
2022-11-25T02:36:12.024Z,96837.78
2022-11-25T02:38:43.648Z,96843.78
2022-11-25T02:41:16.729Z,96848.53
2022-11-25T02:43:46.817Z,96850.53
2022-11-25T02:46:22.580Z,96844.38
2022-11-25T02:49:08.489Z,96835.47
2022-11-25T02:51:37.408Z,96847.69
2022-11-25T02:54:04.510Z,96835.34
2022-11-25T02:56:33.466Z,96837.34
2022-11-25T02:59:01.031Z,96830.44
2022-11-25T03:01:31.372Z,96831.03
2022-11-25T03:03:59.112Z,96822.84
2022-11-25T03:06:27.911Z,96832.31
2022-11-25T03:08:54.831Z,96809.78
2022-11-25T03:11:42.366Z,96800.19
2022-11-25T03:14:09.901Z,96800.91
2022-11-25T03:16:36.692Z,96808.91
2022-11-25T03:19:04.980Z,96812.34
2022-11-25T03:21:31.770Z,96811.63
2022-11-25T03:23:58.592Z,96802.16
2022-11-25T03:26:26.233Z,96802.16
2022-11-25T03:28:53.491Z,96792.56
2022-11-25T03:31:20.425Z,96792.56
2022-11-25T03:33:47.225Z,96792.56
2022-11-25T03:36:14.134Z,96782.94
2022-11-25T03:38:40.991Z,96780.22
2022-11-25T03:41:07.766Z,96782.22
2022-11-25T03:43:35.702Z,96785.53
2022-11-25T03:46:02.846Z,96801.91
2022-11-25T03:48:29.733Z,96807.91
2022-11-25T03:50:56.464Z,96815.38
2022-11-25T03:53:25.266Z,96817.97
2022-11-25T03:55:52.928Z,96824.13
2022-11-25T03:58:22.421Z,96831.59
2022-11-25T04:00:50.892Z,96844.50
2022-11-25T04:03:17.914Z,96855.25
2022-11-25T04:05:44.690Z,96848.34
2022-11-25T04:08:12.371Z,96849.66
2022-11-25T04:10:39.611Z,96848.94
2022-11-25T04:13:07.524Z,96863.84
2022-11-25T04:15:48.330Z,96862.44
2022-11-25T04:18:17.838Z,96869.84
2022-11-25T04:20:44.759Z,96876.06
2022-11-25T04:23:13.432Z,96867.13
2022-11-25T04:25:49.792Z,96860.97
2022-11-25T04:28:23.519Z,96863.84
2022-11-25T04:30:50.765Z,96869.31
2022-11-25T04:33:17.835Z,96870.75
2022-11-25T04:35:47.423Z,96872.75
2022-11-25T04:38:14.155Z,96868.00
2022-11-25T04:40:40.949Z,96869.44
2022-11-25T04:43:20.042Z,96877.03
2022-11-25T04:46:13.138Z,96877.03
2022-11-25T04:48:39.513Z,96886.81
2022-11-25T04:51:06.260Z,96887.53
2022-11-25T04:53:34.053Z,96884.94
2022-11-25T04:56:00.826Z,96879.50
2022-11-25T04:58:51.878Z,96893.28
2022-11-25T05:01:23.240Z,96886.53
2022-11-25T05:03:57.648Z,96894.84
2022-11-25T05:06:26.762Z,96892.88
2022-11-25T05:08:54.290Z,96888.84
2022-11-25T05:11:23.486Z,96895.31
2022-11-25T05:13:51.389Z,96897.47
2022-11-25T05:16:18.282Z,96912.53
2022-11-25T05:18:45.576Z,96905.97
2022-11-25T05:21:13.005Z,96904.09
2022-11-25T05:23:43.465Z,96911.00
2022-11-25T05:26:11.436Z,96914.88
2022-11-25T05:28:42.122Z,96910.69
2022-11-25T05:31:10.571Z,96921.03
2022-11-25T05:33:37.765Z,96935.53
2022-11-25T05:36:06.283Z,96930.78
2022-11-25T05:38:41.901Z,96945.31
2022-11-25T05:41:11.163Z,96948.31
2022-11-25T05:43:39.881Z,96950.66
2022-11-25T05:46:10.605Z,96954.81
2022-11-25T05:48:43.701Z,96957.25
2022-11-25T05:51:11.277Z,96958.88
2022-11-25T05:53:38.833Z,96968.63
2022-11-25T05:56:08.005Z,96964.75
2022-11-25T05:59:04.535Z,96962.47
2022-11-25T06:01:44.605Z,96963.47
2022-11-25T06:04:11.717Z,96955.44
2022-11-25T06:06:38.960Z,96948.69
2022-11-25T06:09:05.879Z,96955.16
2022-11-25T06:11:32.838Z,96955.44
2022-11-25T06:13:59.778Z,96964.50
2022-11-25T06:16:27.100Z,96964.03
2022-11-25T06:19:06.904Z,96967.06
2022-11-25T06:21:34.219Z,96972.69
2022-11-25T06:24:01.299Z,96960.59
2022-11-25T06:26:28.668Z,96963.63
2022-11-25T06:28:56.421Z,96961.75
2022-11-25T06:31:25.945Z,96964.06
2022-11-25T06:34:15.697Z,96984.91
2022-11-25T06:36:42.638Z,96971.66
2022-11-25T06:39:09.425Z,96981.03
2022-11-25T06:41:36.274Z,96982.59
2022-11-25T06:44:03.011Z,96986.63
2022-11-25T06:46:29.964Z,96991.78
2022-11-25T06:49:04.348Z,96995.66
2022-11-25T06:51:31.954Z,97005.72
2022-11-25T06:53:59.057Z,96996.94
2022-11-25T06:56:36.868Z,96990.03
2022-11-25T06:59:04.181Z,96998.94
2022-11-25T07:01:31.353Z,97000.97
2022-11-25T07:04:04.109Z,96999.66
2022-11-25T07:06:32.258Z,97002.97
2022-11-25T07:08:59.125Z,97003.13
2022-11-25T07:11:28.586Z,96990.94
2022-11-25T07:14:02.256Z,97001.97
2022-11-25T07:16:31.792Z,96998.38
2022-11-25T07:19:02.069Z,96991.78
2022-11-25T07:21:31.031Z,96999.84
2022-11-25T07:24:05.133Z,97002.97
2022-11-25T07:26:34.760Z,97014.75
2022-11-25T07:29:03.794Z,97023.69
2022-11-25T07:31:41.550Z,97023.81
2022-11-25T07:34:21.042Z,97028.84
2022-11-25T07:36:49.135Z,97037.75
2022-11-25T07:39:21.779Z,97033.75
2022-11-25T07:41:53.131Z,97034.88
2022-11-25T07:44:20.858Z,97034.59
2022-11-25T07:46:59.231Z,97035.63
2022-11-25T07:49:26.378Z,97039.06
2022-11-25T07:51:55.304Z,97045.97
2022-11-25T07:54:22.912Z,97052.44
2022-11-25T07:56:50.789Z,97050.59
2022-11-25T07:59:19.591Z,97052.31
2022-11-25T08:01:46.758Z,97054.75
2022-11-25T08:04:20.016Z,97068.41
2022-11-25T08:06:49.940Z,97066.94
2022-11-25T08:09:19.713Z,97072.16
2022-11-25T08:11:48.455Z,97071.00
2022-11-25T08:14:16.069Z,97072.59
2022-11-25T08:16:43.202Z,97080.63
2022-11-25T08:19:13.906Z,97084.78
2022-11-25T08:21:41.138Z,97087.41
2022-11-25T08:24:08.948Z,97086.66
2022-11-25T08:26:37.677Z,97082.94
2022-11-25T08:29:06.403Z,97092.25
2022-11-25T08:31:35.815Z,97094.00
2022-11-25T08:34:02.746Z,97103.94
2022-11-25T08:36:30.331Z,97100.31
2022-11-25T08:38:59.910Z,97095.16
2022-11-25T08:41:29.625Z,97091.56
2022-11-25T08:43:57.712Z,97100.63
2022-11-25T08:46:27.781Z,97105.91
2022-11-25T08:48:55.853Z,97111.66
2022-11-25T08:51:25.914Z,97117.72
2022-11-25T08:53:52.687Z,97119.03
2022-11-25T08:56:25.740Z,97130.38
2022-11-25T08:58:55.739Z,97131.09
2022-11-25T09:01:24.109Z,97138.88
2022-11-25T09:03:54.275Z,97146.66
2022-11-25T09:06:21.940Z,97145.50
2022-11-25T09:08:48.945Z,97140.91
2022-11-25T09:11:15.783Z,97141.03
2022-11-25T09:13:42.762Z,97144.19
2022-11-25T09:16:09.998Z,97146.38
2022-11-25T09:18:37.286Z,97151.25
2022-11-25T09:21:12.374Z,97156.56
2022-11-25T09:23:39.859Z,97157.16
2022-11-25T09:26:07.373Z,97165.78
2022-11-25T09:28:35.245Z,97160.16
2022-11-25T09:31:09.554Z,97166.38
2022-11-25T09:33:36.663Z,97166.34
2022-11-25T09:36:04.493Z,97174.84
2022-11-25T09:38:31.376Z,97180.88
2022-11-25T09:41:02.498Z,97189.94
2022-11-25T09:44:09.749Z,97196.44
2022-11-25T09:47:01.458Z,97196.72
2022-11-25T09:50:09.997Z,97204.38
2022-11-25T09:52:44.842Z,97204.09
2022-11-25T09:55:24.557Z,97203.50
2022-11-25T09:58:13.054Z,97210.69
2022-11-25T10:00:45.424Z,97215.59
2022-11-25T10:03:33.818Z,97209.84
2022-11-25T10:06:20.702Z,97212.56
2022-11-25T10:08:58.288Z,97218.03
2022-11-25T10:11:28.565Z,97222.06
2022-11-25T10:13:57.864Z,97226.22
2022-11-25T10:16:46.016Z,97232.53
2022-11-25T10:19:21.653Z,97231.81
2022-11-25T10:21:53.617Z,97224.91
2022-11-25T10:24:21.554Z,97219.59
2022-11-25T10:27:01.533Z,97224.38
2022-11-25T10:29:30.465Z,97227.41
2022-11-25T10:32:05.197Z,97228.84
2022-11-25T10:34:39.393Z,97234.59
2022-11-25T10:37:12.670Z,97245.97
2022-11-25T10:39:39.725Z,97238.94
2022-11-25T10:42:14.642Z,97233.56
2022-11-25T10:44:42.054Z,97230.53
2022-11-25T10:47:36.738Z,97231.47
2022-11-25T10:50:13.107Z,97229.72
2022-11-25T10:52:45.249Z,97237.31
2022-11-25T10:55:15.410Z,97234.13
2022-11-25T10:57:43.087Z,97241.78
2022-11-25T11:00:37.251Z,97246.97
2022-11-25T11:03:39.673Z,97246.69
2022-11-25T11:06:06.615Z,97260.25
2022-11-25T11:08:40.316Z,97256.38
2022-11-25T11:11:16.605Z,97262.16
2022-11-25T11:13:44.824Z,97264.50
2022-11-25T11:16:27.268Z,97265.50
2022-11-25T11:18:55.120Z,97263.63
2022-11-25T11:21:31.700Z,97268.38
2022-11-25T11:23:59.885Z,97266.22
2022-11-25T11:26:30.940Z,97272.00
2022-11-25T11:29:17.203Z,97283.50
2022-11-25T11:31:50.647Z,97289.88
2022-11-25T11:34:50.233Z,97292.72
2022-11-25T11:37:38.599Z,97297.75
2022-11-25T11:40:33.478Z,97296.84
2022-11-25T11:43:06.534Z,97304.34
2022-11-25T11:45:55.321Z,97304.34
2022-11-25T11:48:41.638Z,97307.38
2022-11-25T11:51:34.563Z,97310.94
2022-11-25T11:54:17.552Z,97309.19
2022-11-25T11:56:55.085Z,97311.19
2022-11-25T11:59:46.704Z,97319.81
2022-11-25T12:02:20.622Z,97310.88
2022-11-25T12:04:53.482Z,97305.53
2022-11-25T12:07:36.036Z,97306.97
2022-11-25T12:10:10.758Z,97305.66
2022-11-25T12:12:42.070Z,97315.59
2022-11-25T12:15:24.371Z,97314.16
2022-11-25T12:17:54.407Z,97319.84
2022-11-25T12:20:55.383Z,97330.19
2022-11-25T12:23:41.063Z,97334.78
2022-11-25T12:26:22.841Z,97338.44
2022-11-25T12:28:58.002Z,97341.22
2022-11-25T12:31:30.507Z,97339.78
2022-11-25T12:34:06.201Z,97342.50
2022-11-25T12:36:38.074Z,97347.25
2022-11-25T12:39:29.394Z,97352.19
2022-11-25T12:41:59.518Z,97352.31
2022-11-25T12:44:44.270Z,97356.16
2022-11-25T12:47:11.674Z,97350.94
2022-11-25T12:49:43.040Z,97359.44
2022-11-25T12:52:34.040Z,97363.03
2022-11-25T12:55:09.545Z,97360.75
2022-11-25T12:58:05.578Z,97369.84
2022-11-25T13:00:42.662Z,97367.31
2022-11-25T13:03:30.844Z,97363.13
2022-11-25T13:06:40.798Z,97364.22
2022-11-25T13:09:10.387Z,97360.28
2022-11-25T13:12:02.890Z,97361.88
2022-11-25T13:14:42.057Z,97363.19
2022-11-25T13:17:12.905Z,97370.91
2022-11-25T13:19:39.960Z,97369.97
2022-11-25T13:22:27.222Z,97373.03
2022-11-25T13:24:54.049Z,97379.22
2022-11-25T13:27:36.033Z,97373.31
2022-11-25T13:30:03.928Z,97370.88
2022-11-25T13:32:38.746Z,97371.44
2022-11-25T13:35:24.693Z,97378.22
2022-11-25T13:37:51.645Z,97372.75
2022-11-25T13:40:33.785Z,97373.75
2022-11-25T13:43:00.811Z,97379.53
2022-11-25T13:45:36.212Z,97387.94
2022-11-25T13:48:17.917Z,97399.50
2022-11-25T13:51:10.253Z,97399.94
2022-11-25T13:53:35.965Z,97409.56
2022-11-25T13:56:33.652Z,97404.56
2022-11-25T13:59:15.731Z,97409.03
2022-11-25T14:01:46.625Z,97413.78
2022-11-25T14:04:14.685Z,97412.34
2022-11-25T14:06:58.314Z,97410.59
2022-11-25T14:09:55.423Z,97416.63
2022-11-25T14:12:33.990Z,97411.88
2022-11-25T14:15:12.420Z,97407.28
2022-11-25T14:18:00.295Z,97419.09
2022-11-25T14:20:45.038Z,97414.63
2022-11-25T14:23:40.056Z,97417.66
2022-11-25T14:26:34.070Z,97427.00
2022-11-25T14:29:12.522Z,97436.97
2022-11-25T14:31:44.547Z,97439.84
2022-11-25T14:34:20.362Z,97438.13
2022-11-25T14:37:09.205Z,97445.47
2022-11-25T14:39:59.806Z,97441.72
2022-11-25T14:42:32.049Z,97448.63
2022-11-25T14:44:59.497Z,97454.56
2022-11-25T14:47:28.670Z,97461.03
2022-11-25T14:52:47.573Z,97454.13
2022-11-25T14:55:25.135Z,97460.88
2022-11-25T14:57:52.367Z,97464.63
2022-11-25T15:00:19.541Z,97461.00
2022-11-25T15:03:17.040Z,97471.50
2022-11-25T15:05:43.897Z,97471.22
2022-11-25T15:08:15.999Z,97468.91
2022-11-25T15:10:50.254Z,97469.91
2022-11-25T15:13:25.291Z,97473.47
2022-11-25T15:15:52.856Z,97477.38
2022-11-25T15:18:22.373Z,97479.94
2022-11-25T15:20:56.423Z,97482.81
2022-11-25T15:23:28.352Z,97483.34
2022-11-25T15:25:55.426Z,97492.91
2022-11-25T15:28:22.155Z,97504.69
2022-11-25T15:31:00.178Z,97499.59
2022-11-25T15:33:29.249Z,97503.47
2022-11-25T15:35:56.207Z,97501.84
2022-11-25T15:38:45.482Z,97506.00
2022-11-25T15:41:33.934Z,97513.81
2022-11-25T15:44:05.188Z,97511.50
2022-11-25T15:46:34.832Z,97510.31
2022-11-25T15:49:04.937Z,97518.09
2022-11-25T15:51:41.864Z,97526.75
2022-11-25T15:54:30.275Z,97523.59
2022-11-25T15:57:03.524Z,97536.03
2022-11-25T15:59:56.095Z,97532.56
2022-11-25T16:02:41.925Z,97544.69
2022-11-25T16:05:15.021Z,97542.38
2022-11-25T16:07:50.952Z,97550.63
2022-11-25T16:10:23.495Z,97560.00
2022-11-25T16:13:36.560Z,97558.03
2022-11-25T16:16:29.520Z,97570.44
2022-11-25T16:19:02.247Z,97569.31
2022-11-25T16:21:35.112Z,97569.16
2022-11-25T16:24:05.390Z,97573.47
2022-11-25T16:26:37.494Z,97571.81
2022-11-25T16:29:18.710Z,97576.53
2022-11-25T16:31:45.806Z,97582.56
2022-11-25T16:34:18.722Z,97583.50
2022-11-25T16:36:45.997Z,97586.06
2022-11-25T16:39:13.159Z,97590.69
2022-11-25T16:41:41.710Z,97596.88
2022-11-25T16:44:27.181Z,97602.53
2022-11-25T16:46:54.332Z,97604.31
2022-11-25T16:49:22.603Z,97602.75
2022-11-25T16:51:53.242Z,97612.88
2022-11-25T16:54:20.577Z,97620.75
2022-11-25T16:56:49.833Z,97627.97
2022-11-25T16:59:26.850Z,97631.34
2022-11-25T17:01:53.768Z,97634.19
2022-11-25T17:04:20.495Z,97640.91
2022-11-25T17:07:16.510Z,97640.09
2022-11-25T17:09:34.710Z,97630.00
2022-11-25T17:12:01.645Z,97631.78
2022-11-25T17:14:31.579Z,97636.28
2022-11-25T17:16:59.819Z,97636.06
2022-11-25T17:19:26.823Z,97636.38
2022-11-25T17:21:53.685Z,97641.44
2022-11-25T17:32:29.995Z,97675.19
2022-11-25T17:34:56.718Z,97678.81
2022-11-25T17:37:24.642Z,97687.88
2022-11-25T17:39:54.265Z,97692.81
2022-11-25T17:42:29.173Z,97693.69
2022-11-25T17:44:56.099Z,97696.59
2022-11-25T17:47:23.035Z,97704.22
2022-11-25T17:49:49.919Z,97703.66
2022-11-25T17:52:16.726Z,97710.56
2022-11-25T17:54:43.440Z,97713.31
2022-11-25T17:57:15.007Z,97717.50
2022-11-25T17:59:41.816Z,97726.59
2022-11-25T18:02:18.666Z,97721.13
2022-11-25T18:04:45.800Z,97729.47
2022-11-25T18:07:12.536Z,97732.94
2022-11-25T18:09:39.370Z,97746.06
2022-11-25T18:12:25.302Z,97746.78
2022-11-25T18:14:52.131Z,97745.47
2022-11-25T18:17:19.376Z,97749.66
2022-11-25T18:19:51.439Z,97752.56
2022-11-25T18:22:21.663Z,97759.47
2022-11-25T18:24:48.493Z,97760.22
2022-11-25T18:27:26.871Z,97759.09
2022-11-25T18:29:54.291Z,97770.75
2022-11-25T18:32:22.668Z,97774.34
2022-11-25T18:34:49.926Z,97782.00
2022-11-25T18:37:16.702Z,97780.72
2022-11-25T18:39:43.590Z,97786.34
2022-11-25T18:42:23.794Z,97787.78
2022-11-25T18:44:50.630Z,97792.16
2022-11-25T18:47:17.342Z,97792.88
2022-11-25T18:49:44.087Z,97803.97
2022-11-25T18:52:10.794Z,97800.66
2022-11-25T18:54:37.755Z,97806.47
2022-11-25T18:57:05.326Z,97801.75
2022-11-25T18:59:37.247Z,97810.13
2022-11-25T19:02:09.146Z,97811.56
2022-11-25T19:04:36.378Z,97817.91
2022-11-25T19:07:03.273Z,97825.59
2022-11-25T19:09:30.050Z,97815.38
2022-11-25T19:11:56.965Z,97827.19
2022-11-25T19:14:29.156Z,97832.66
2022-11-25T19:16:57.237Z,97838.31
2022-11-25T19:19:24.040Z,97837.72
2022-11-25T19:21:50.864Z,97843.34
2022-11-25T19:24:17.550Z,97850.28
2022-11-25T19:26:47.385Z,97849.53
2022-11-25T19:29:19.652Z,97863.06
2022-11-25T19:31:47.552Z,97859.94
2022-11-25T19:34:27.434Z,97860.09
2022-11-25T19:36:54.185Z,97863.75
2022-11-25T19:39:20.854Z,97869.38
2022-11-25T19:41:48.001Z,97868.78
2022-11-25T19:44:15.286Z,97881.19
2022-11-25T19:47:13.907Z,97883.38
2022-11-25T19:49:34.567Z,97881.50
2022-11-25T19:52:01.285Z,97895.91
2022-11-25T19:54:29.528Z,97893.19
2022-11-25T19:56:56.230Z,97898.13
2022-11-25T19:59:23.002Z,97896.09
2022-11-25T20:01:49.766Z,97887.31
2022-11-25T20:04:21.458Z,97897.53
2022-11-25T20:06:49.391Z,97890.78
2022-11-25T20:09:16.188Z,97899.72
2022-11-25T20:11:43.323Z,97896.41
2022-11-25T20:14:10.123Z,97889.66
2022-11-25T20:16:40.781Z,97891.09
2022-11-25T20:19:11.214Z,97894.00
2022-11-25T20:21:40.231Z,97900.91
2022-11-25T20:24:13.881Z,97905.66
2022-11-25T20:26:42.826Z,97900.38
2022-11-25T20:29:23.608Z,97909.31
2022-11-25T20:31:55.622Z,97918.97
2022-11-25T20:34:22.409Z,97921.84
2022-11-25T20:36:49.369Z,97929.34
2022-11-25T20:39:18.494Z,97937.56
2022-11-25T20:41:49.793Z,97943.03
2022-11-25T20:44:16.823Z,97941.75
2022-11-25T20:46:43.601Z,97947.38
2022-11-25T20:49:22.574Z,97948.13
2022-11-25T20:51:49.829Z,97951.56
2022-11-25T20:54:17.746Z,97947.53
2022-11-25T20:56:45.171Z,97951.72
2022-11-25T20:59:23.331Z,97956.47
2022-11-25T21:01:51.255Z,97958.69
2022-11-25T21:04:18.489Z,97961.41
2022-11-25T21:06:45.653Z,97962.84
2022-11-25T21:09:24.244Z,97974.53
2022-11-25T21:11:51.434Z,97975.25
2022-11-25T21:14:19.809Z,97975.97
2022-11-25T21:16:52.527Z,97980.16
2022-11-25T21:19:19.917Z,97976.13
2022-11-25T21:21:48.992Z,97978.88
2022-11-25T21:24:30.322Z,97982.34
2022-11-25T21:27:02.894Z,97971.41
2022-11-25T21:29:31.996Z,97979.78
2022-11-25T21:31:58.787Z,97980.50
2022-11-25T21:34:46.370Z,97972.28
2022-11-25T21:37:13.269Z,97975.16
2022-11-25T21:39:40.046Z,97972.28
2022-11-25T21:42:07.927Z,97971.56
2022-11-25T21:44:37.134Z,97976.31
2022-11-25T21:47:14.234Z,97985.25
2022-11-25T21:49:41.120Z,97985.25
2022-11-25T21:52:07.775Z,97981.94
2022-11-25T21:54:35.057Z,97975.00
2022-11-25T21:57:03.903Z,97994.19
2022-11-25T21:59:35.437Z,97992.88
2022-11-25T22:02:02.597Z,98000.94
2022-11-25T22:04:29.618Z,98005.69
2022-11-25T22:06:57.153Z,98011.19
2022-11-25T22:09:26.742Z,98008.44
2022-11-25T22:11:53.702Z,98011.19
2022-11-25T22:14:35.028Z,98011.00
2022-11-25T22:17:05.415Z,98015.22
2022-11-25T22:19:32.554Z,98018.66
2022-11-25T22:21:59.952Z,98023.56
2022-11-25T22:24:33.636Z,98013.19
2022-11-25T22:27:00.648Z,98015.22
2022-11-25T22:29:32.326Z,98024.16
2022-11-25T22:31:59.341Z,98029.78
2022-11-25T22:34:26.482Z,98028.31
2022-11-25T22:36:53.779Z,98020.84
2022-11-25T22:39:25.590Z,98028.31
2022-11-25T22:41:54.793Z,98029.06
2022-11-25T22:44:34.482Z,98034.38
2022-11-25T22:47:01.649Z,98044.03
2022-11-25T22:49:47.491Z,98040.56
2022-11-25T22:52:18.065Z,98047.16
2022-11-25T22:54:44.826Z,98049.16
2022-11-25T22:57:11.566Z,98053.19
2022-11-25T22:59:38.380Z,98047.00
2022-11-25T23:02:06.147Z,98044.81
2022-11-25T23:04:33.011Z,98051.56
2022-11-25T23:06:59.728Z,98053.59
2022-11-25T23:09:26.398Z,98063.81
2022-11-25T23:11:53.081Z,98058.19
2022-11-25T23:14:19.788Z,98059.44
2022-11-25T23:16:46.707Z,98062.75
2022-11-25T23:19:16.839Z,98062.59
2022-11-25T23:21:45.630Z,98059.13
2022-11-25T23:24:14.560Z,98065.72
2022-11-25T23:26:41.602Z,98068.44
2022-11-25T23:29:08.332Z,98068.28
2022-11-25T23:31:36.687Z,98064.66
2022-11-25T23:34:05.422Z,98076.88
2022-11-25T23:36:50.591Z,98073.41
2022-11-25T23:39:22.690Z,98073.25
2022-11-25T23:41:49.937Z,98074.72
2022-11-25T23:44:27.086Z,98073.81
2022-11-25T23:46:55.597Z,98081.28
2022-11-25T23:49:22.223Z,98088.78
2022-11-25T23:51:49.049Z,98087.31
2022-11-25T23:54:16.916Z,98089.34
2022-11-25T23:56:43.693Z,98091.34
2022-11-25T23:59:14.594Z,98089.16
